»·PEaware :: M459KM KMFR-KOTH

M459KM :: KMFR-KOTH

FLIGHT INFORMATION

Flight Status: Arrived
Operator: Privately registered:
Isle of Man
More flights under this callsign
Pilot: Jarrett L. (8209)
Aircraft: PIPER PA-28 CHEROKEE ARCHER
(PA28)
More flights by this aircraft type
Origin: KMFR Rogue Valley Intl-Medford
United States
Destination: KOTH North Bend Mun
United States
More flights between these airports :: More routes between these airports
Route: 5S6
File this flight plan on PilotEdge
Remarks: FSE
Altitude:
(Current/Filed)
8,000ft
Speed:
(Current/Filed)
140kts
Departed: 30-Oct-17 04:09 AM
Arrived: 30-Oct-17 05:09 AM
Distance/Time
Traveled:
87nm/1:00
Distance/Time
To Go:
Arrived

Flight Plot

Page will automatically refresh every two minutes.

Flight plan parsing failed; only flown route is shown


Map Options




Map Legend


Flown Route
Filed Route
Departure Airport
Arrival Airport
Navaid (VOR, NDB)
Fix

Horizontal Profiles

Position Reports

Time Latitude Longitude Heading Altitude Ground
Speed
30-Oct-17 04:02 42.375093 -122.877870 292 1336ft 0kts
30-Oct-17 04:03 42.375093 -122.877870 292 1336ft 0kts
30-Oct-17 04:04 42.375093 -122.877870 292 1336ft 0kts
30-Oct-17 04:05 42.375093 -122.877870 292 1336ft 0kts
30-Oct-17 04:06 42.375093 -122.877870 292 1336ft 0kts
30-Oct-17 04:07 42.375093 -122.877870 292 1336ft 0kts
30-Oct-17 04:08 42.375093 -122.877870 292 1336ft 0kts
30-Oct-17 04:09 42.375439 -122.877831 22 1336ft 6kts
30-Oct-17 04:10 42.375934 -122.878164 19 1336ft 2kts
30-Oct-17 04:11 42.376476 -122.876156 77 1336ft 8kts
30-Oct-17 04:12 42.373511 -122.874123 157 1336ft 19kts
30-Oct-17 04:13 42.369545 -122.871208 74 1336ft 10kts
30-Oct-17 04:14 42.382579 -122.877155 329 2061ft 79kts
30-Oct-17 04:15 42.402735 -122.886139 340 3558ft 81kts
30-Oct-17 04:16 42.424119 -122.895090 340 5005ft 80kts
30-Oct-17 04:17 42.446483 -122.903090 347 6286ft 86kts
30-Oct-17 04:18 42.468525 -122.912768 308 7521ft 86kts
30-Oct-17 04:19 42.482181 -122.947396 296 7880ft 129kts
30-Oct-17 04:20 42.495414 -122.993138 287 7876ft 131kts
30-Oct-17 04:21 42.508282 -123.039339 292 7876ft 131kts
30-Oct-17 04:22 42.521909 -123.085369 292 7876ft 131kts
30-Oct-17 04:23 42.534639 -123.128186 292 7876ft 131kts
30-Oct-17 04:24 42.548045 -123.173839 292 7920ft 128kts
30-Oct-17 04:25 42.561323 -123.219810 292 7867ft 131kts
30-Oct-17 04:26 42.574511 -123.265718 292 7867ft 130kts
30-Oct-17 04:27 42.587326 -123.311818 292 7867ft 131kts
30-Oct-17 04:28 42.600261 -123.358396 292 7867ft 132kts
30-Oct-17 04:29 42.613343 -123.405251 293 7867ft 132kts
30-Oct-17 04:30 42.626456 -123.452012 293 7867ft 132kts
30-Oct-17 04:31 42.639350 -123.498801 289 7867ft 132kts
30-Oct-17 04:32 42.650375 -123.546808 289 7867ft 132kts
30-Oct-17 04:33 42.661397 -123.594654 289 7867ft 132kts
30-Oct-17 04:34 42.672462 -123.642462 289 7867ft 132kts
30-Oct-17 04:35 42.683540 -123.690086 289 7867ft 132kts
30-Oct-17 04:36 42.694712 -123.737876 289 7867ft 132kts
30-Oct-17 04:37 42.705344 -123.785238 289 7861ft 118kts
30-Oct-17 04:38 42.713692 -123.824974 289 7866ft 106kts
30-Oct-17 04:39 42.720923 -123.859445 289 7867ft 106kts
30-Oct-17 04:40 42.728684 -123.896234 289 7867ft 106kts
30-Oct-17 04:41 42.736873 -123.934815 289 7867ft 106kts
30-Oct-17 04:42 42.745265 -123.973930 289 7867ft 110kts
30-Oct-17 04:43 42.754679 -124.017396 290 7869ft 134kts
30-Oct-17 04:44 42.765699 -124.067981 290 7867ft 141kts
30-Oct-17 04:45 42.777015 -124.119289 290 7867ft 141kts
30-Oct-17 04:46 42.788305 -124.170238 290 7922ft 138kts
30-Oct-17 04:47 42.798911 -124.218205 290 7931ft 140kts
30-Oct-17 04:48 42.808832 -124.263531 290 7931ft 140kts
30-Oct-17 04:49 42.819435 -124.314792 291 7931ft 140kts
30-Oct-17 04:50 42.830068 -124.365906 291 7931ft 140kts
30-Oct-17 04:51 42.840172 -124.417883 293 7889ft 140kts
30-Oct-17 04:52 42.856885 -124.464997 317 7843ft 137kts
30-Oct-17 04:53 42.887249 -124.492848 332 7849ft 132kts
30-Oct-17 04:54 42.921130 -124.506673 351 7850ft 128kts
30-Oct-17 04:55 42.956209 -124.513683 351 7838ft 128kts
30-Oct-17 04:56 42.991292 -124.516257 353 7842ft 127kts
30-Oct-17 04:57 43.026756 -124.521703 5 7611ft 137kts
30-Oct-17 04:58 43.064406 -124.516082 9 6747ft 132kts
30-Oct-17 04:59 43.097980 -124.507121 19 6147ft 118kts
30-Oct-17 05:00 43.127995 -124.494799 10 5697ft 116kts
30-Oct-17 05:01 43.159317 -124.485002 22 5147ft 119kts
30-Oct-17 05:02 43.190452 -124.470606 15 4347ft 118kts
30-Oct-17 05:03 43.222791 -124.460124 17 3606ft 122kts
30-Oct-17 05:04 43.255793 -124.447839 16 2719ft 120kts
30-Oct-17 05:05 43.286139 -124.432708 21 2052ft 114kts
30-Oct-17 05:06 43.313557 -124.416636 23 1477ft 103kts
30-Oct-17 05:07 43.338423 -124.397928 33 1401ft 102kts
30-Oct-17 05:08 43.359771 -124.372851 43 1277ft 103kts
30-Oct-17 05:09 43.377034 -124.345023 51 1421ft 99kts
30-Oct-17 05:10 43.387551 -124.325731 54 1097ft 101kts
30-Oct-17 05:11 43.397532 -124.303634 59 777ft 100kts
30-Oct-17 05:12 43.408868 -124.275498 58 350ft 79kts
30-Oct-17 05:13 43.417727 -124.253315 43 20ft 51kts
30-Oct-17 05:14 43.416809 -124.249661 137 20ft 6kts

Navigation Log

Ident Type
Flight plan parsing failed, navigation log unavailable